Time;durP1;ratioP1;P1;durP2;ratioP2;P2;SDS_P1;SDS_P2;PMS_P1;PMS_P2;Temp;Humidity;BMP_temperature;BMP_pressure;BME280_temperature;BME280_humidity;BME280_pressure;Samples;Min_cycle;Max_cycle;Signal;HPM_P1;HPM_P2
2022/09/19 00:01:57;;;;;;;;;8.50;7.00;;;27.17;100722.17;;;;116987;1194;25406;-63
2022/09/19 00:04:31;;;;;;;;;6.67;5.33;;;27.17;100719.14;;;;116996;1193;24892;-63
2022/09/19 00:07:00;;;;;;;;;10.67;8.33;;;27.17;100718.02;;;;117009;1194;25254;-63
2022/09/19 00:09:31;;;;;;;;;11.00;9.50;;;27.18;100717.39;;;;117008;1193;25072;-64
2022/09/19 00:12:01;;;;;;;;;14.33;10.67;;;27.18;100714.58;;;;116974;1193;24883;-63
2022/09/19 00:14:33;;;;;;;;;8.50;7.75;;;27.19;100712.88;;;;117075;1191;25098;-63
2022/09/19 00:17:07;;;;;;;;;8.25;5.75;;;27.18;100704.98;;;;116953;1194;25477;-63
2022/09/19 00:19:37;;;;;;;;;10.75;8.75;;;27.17;100697.52;;;;117033;1194;25477;-65
2022/09/19 00:22:07;;;;;;;;;11.00;9.50;;;27.17;100694.27;;;;117007;1193;25023;-64
2022/09/19 00:24:49;;;;;;;;;8.75;8.25;;;27.16;100702.52;;;;116975;1193;24736;-64
2022/09/19 00:27:26;;;;;;;;;11.33;9.00;;;27.15;100699.77;;;;116839;1193;25816;-63
2022/09/19 00:29:55;;;;;;;;;14.33;10.33;;;27.16;100698.50;;;;116976;1193;25255;-65
2022/09/19 00:32:24;;;;;;;;;13.67;10.00;;;27.16;100701.91;;;;116979;1193;25070;-63
2022/09/19 00:34:54;;;;;;;;;12.33;11.33;;;27.15;100702.70;;;;117063;1191;25332;-64
2022/09/19 00:37:23;;;;;;;;;10.75;10.75;;;27.15;100697.19;;;;117021;1193;25950;-62
2022/09/19 00:39:52;;;;;;;;;10.67;10.67;;;27.14;100701.09;;;;117044;1191;24991;-62
2022/09/19 00:42:24;;;;;;;;;10.00;8.25;;;27.15;100704.00;;;;117043;1193;25333;-63
2022/09/19 00:45:02;;;;;;;;;10.33;7.67;;;27.14;100714.83;;;;117062;1191;25497;-63
2022/09/19 00:47:40;;;;;;;;;11.00;8.50;;;27.15;100718.95;;;;117042;1193;25217;-63
2022/09/19 00:50:15;;;;;;;;;9.75;7.00;;;27.15;100719.19;;;;117060;1193;25575;-63
2022/09/19 00:52:50;;;;;;;;;13.33;9.67;;;27.17;100723.58;;;;117106;1191;25243;-63
2022/09/19 00:55:18;;;;;;;;;9.67;9.67;;;27.18;100719.27;;;;116998;1193;25270;-62
2022/09/19 00:57:53;;;;;;;;;13.00;8.00;;;27.18;100727.00;;;;116849;1193;25626;-64
2022/09/19 01:00:22;;;;;;;;;7.75;7.25;;;27.16;100721.06;;;;117047;1193;24727;-63
2022/09/19 01:02:51;;;;;;;;;10.00;7.00;;;27.19;100720.05;;;;116898;1194;24856;-63
2022/09/19 01:05:28;;;;;;;;;8.50;5.50;;;27.17;100724.28;;;;117047;1194;24771;-63
2022/09/19 01:08:19;;;;;;;;;8.33;8.33;;;27.18;100732.59;;;;117042;1193;25013;-62
2022/09/19 01:11:12;;;;;;;;;9.75;8.00;;;27.20;100733.35;;;;117120;1193;25485;-63
2022/09/19 01:13:54;;;;;;;;;12.33;9.00;;;27.21;100730.02;;;;117171;1191;25500;-63
2022/09/19 01:16:47;;;;;;;;;13.00;11.00;;;27.20;100729.67;;;;117194;1192;25026;-63
2022/09/19 01:19:41;;;;;;;;;12.50;8.50;;;27.24;100726.80;;;;117416;1189;25048;-64
2022/09/19 01:22:31;;;;;;;;;8.25;6.00;;;27.26;100728.58;;;;117161;1190;24941;-63
2022/09/19 01:25:17;;;;;;;;;9.25;9.25;;;27.25;100729.17;;;;117160;1191;25698;-63
2022/09/19 01:27:52;;;;;;;;;9.00;7.50;;;27.22;100726.28;;;;117163;1191;25118;-62
2022/09/19 01:30:20;;;;;;;;;7.00;7.00;;;27.19;100724.12;;;;117151;1192;25622;-63
2022/09/19 01:33:01;;;;;;;;;10.75;8.50;;;27.18;100724.68;;;;117194;1191;25179;-63
2022/09/19 01:35:32;;;;;;;;;9.67;7.67;;;27.16;100724.23;;;;117169;1191;24861;-63
2022/09/19 01:38:05;;;;;;;;;7.00;5.00;;;27.16;100727.39;;;;117174;1192;25367;-63
2022/09/19 01:40:34;;;;;;;;;9.67;7.00;;;27.15;100730.59;;;;117393;1191;24747;-63
2022/09/19 01:43:06;;;;;;;;;7.67;5.33;;;27.15;100729.29;;;;117111;1193;25349;-64
2022/09/19 01:45:40;;;;;;;;;11.33;9.00;;;27.15;100728.20;;;;117157;1192;25338;-63
2022/09/19 01:48:32;;;;;;;;;4.67;4.67;;;27.14;100724.13;;;;117049;1193;25650;-64
2022/09/19 01:51:37;;;;;;;;;8.50;7.75;;;27.14;100726.42;;;;117070;1191;25548;-63
2022/09/19 01:54:14;;;;;;;;;11.33;6.67;;;27.15;100724.44;;;;117019;1193;25112;-63
2022/09/19 01:57:00;;;;;;;;;3.33;2.67;;;27.17;100726.05;;;;117091;1193;25041;-63
2022/09/19 02:00:06;;;;;;;;;9.50;8.50;;;27.15;100731.93;;;;116932;1193;25036;-64
2022/09/19 02:02:43;;;;;;;;;7.75;7.00;;;27.13;100728.86;;;;117053;1193;25040;-63
2022/09/19 02:05:33;;;;;;;;;7.00;7.00;;;27.13;100728.07;;;;117023;1192;25135;-63
2022/09/19 02:08:17;;;;;;;;;7.25;5.50;;;27.14;100723.12;;;;117123;1191;25057;-64
2022/09/19 02:10:57;;;;;;;;;5.67;5.67;;;27.16;100718.33;;;;117104;1193;25595;-64
2022/09/19 02:13:29;;;;;;;;;8.00;7.75;;;27.18;100719.79;;;;117030;1193;25160;-64
2022/09/19 02:16:20;;;;;;;;;8.50;6.50;;;27.20;100720.63;;;;117080;1193;24690;-65
2022/09/19 02:19:12;;;;;;;;;5.75;5.75;;;27.21;100724.67;;;;116964;1193;25045;-64
2022/09/19 02:21:48;;;;;;;;;12.00;7.00;;;27.25;100734.70;;;;117092;1192;25366;-64
2022/09/19 02:24:22;;;;;;;;;6.25;4.25;;;27.27;100741.61;;;;117071;1193;25320;-63
2022/09/19 02:26:52;;;;;;;;;4.00;4.00;;;27.25;100744.77;;;;117004;1193;24722;-63
2022/09/19 02:29:26;;;;;;;;;4.50;4.50;;;27.24;100748.75;;;;117059;1193;24845;-64
2022/09/19 02:31:56;;;;;;;;;6.25;6.25;;;27.23;100754.34;;;;117034;1193;26164;-63
2022/09/19 02:34:24;;;;;;;;;6.33;4.33;;;27.22;100754.59;;;;116973;1193;24976;-63
2022/09/19 02:37:22;;;;;;;;;9.00;6.25;;;27.21;100760.30;;;;117016;1193;25102;-64
2022/09/19 02:39:59;;;;;;;;;7.00;5.00;;;27.21;100774.05;;;;117008;1193;25483;-64
2022/09/19 02:42:34;;;;;;;;;6.00;3.33;;;27.24;100781.36;;;;117026;1193;25522;-63
2022/09/19 02:45:11;;;;;;;;;7.50;5.50;;;27.23;100793.10;;;;117051;1191;25575;-63
2022/09/19 02:48:12;;;;;;;;;8.75;5.75;;;27.21;100796.12;;;;117037;1193;26395;-63
2022/09/19 02:50:48;;;;;;;;;6.75;5.50;;;27.22;100799.16;;;;116905;1194;25002;-63
2022/09/19 02:53:21;;;;;;;;;6.75;6.50;;;27.23;100801.92;;;;117078;1191;25098;-63
2022/09/19 02:55:55;;;;;;;;;6.25;5.50;;;27.22;100805.83;;;;117029;1191;25683;-63
2022/09/19 02:58:26;;;;;;;;;5.67;5.67;;;27.21;100811.97;;;;117111;1192;24930;-63
2022/09/19 03:01:04;;;;;;;;;5.00;5.00;;;27.21;100813.80;;;;117036;1193;25552;-63
2022/09/19 03:06:36;;;;;;;;;12.50;7.25;;;27.21;100815.38;;;;117002;1192;25463;-63
2022/09/19 03:09:06;;;;;;;;;7.50;4.00;;;27.16;100811.61;;;;117008;1194;25458;-65
2022/09/19 03:11:39;;;;;;;;;5.33;5.33;;;27.17;100816.10;;;;117063;1193;25538;-63
2022/09/19 03:14:08;;;;;;;;;6.67;5.33;;;27.17;100818.65;;;;117014;1194;25615;-64
2022/09/19 03:16:41;;;;;;;;;9.00;8.00;;;27.17;100824.19;;;;117016;1193;25497;-64
2022/09/19 03:19:10;;;;;;;;;8.00;7.00;;;27.16;100828.95;;;;117048;1192;25549;-65
2022/09/19 03:21:38;;;;;;;;;8.50;5.75;;;27.20;100829.25;;;;117054;1192;25651;-60
2022/09/19 03:24:08;;;;;;;;;5.00;3.00;;;27.18;100826.64;;;;116848;1195;25201;-62
2022/09/19 03:26:37;;;;;;;;;6.50;4.00;;;27.17;100824.70;;;;117037;1194;25658;-62
2022/09/19 03:29:08;;;;;;;;;6.00;5.75;;;27.17;100828.14;;;;117018;1193;24996;-63
2022/09/19 03:31:36;;;;;;;;;4.00;4.00;;;27.18;100827.81;;;;117056;1194;25159;-62
2022/09/19 03:34:06;;;;;;;;;5.67;5.67;;;27.17;100829.42;;;;117014;1193;25033;-63
2022/09/19 03:36:34;;;;;;;;;7.50;7.00;;;27.17;100831.23;;;;117039;1194;25524;-63
2022/09/19 03:39:03;;;;;;;;;7.50;5.00;;;27.17;100828.45;;;;117004;1193;25184;-62
2022/09/19 03:41:32;;;;;;;;;4.50;4.50;;;27.15;100826.91;;;;117004;1195;25209;-62
2022/09/19 03:44:01;;;;;;;;;5.75;4.00;;;27.13;100825.63;;;;117031;1194;25304;-62
2022/09/19 03:46:30;;;;;;;;;7.50;5.75;;;27.13;100821.44;;;;117072;1194;25250;-62
2022/09/19 03:49:02;;;;;;;;;7.00;5.00;;;27.13;100817.55;;;;117055;1194;25330;-62
2022/09/19 03:51:31;;;;;;;;;8.33;5.33;;;27.13;100809.68;;;;117055;1194;25099;-62
2022/09/19 03:54:00;;;;;;;;;4.75;4.75;;;27.13;100805.73;;;;117048;1193;24835;-62
2022/09/19 03:56:29;;;;;;;;;5.50;5.50;;;27.13;100809.91;;;;117010;1193;25123;-61
2022/09/19 03:58:58;;;;;;;;;5.00;5.00;;;27.13;100814.82;;;;117023;1193;24773;-62
2022/09/19 04:01:27;;;;;;;;;4.75;3.25;;;27.12;100814.09;;;;117076;1193;25308;-62
2022/09/19 04:03:55;;;;;;;;;3.50;3.00;;;27.11;100818.50;;;;116936;1193;25520;-63
2022/09/19 04:06:23;;;;;;;;;6.25;6.00;;;27.12;100819.96;;;;117011;1192;24776;-64
2022/09/19 04:08:52;;;;;;;;;4.00;3.00;;;27.12;100822.14;;;;116919;1194;25086;-62
2022/09/19 04:11:20;;;;;;;;;5.33;5.33;;;27.12;100816.14;;;;116840;1194;25508;-62
2022/09/19 04:13:50;;;;;;;;;5.00;3.33;;;27.12;100814.36;;;;117010;1193;25036;-63
2022/09/19 04:16:19;;;;;;;;;6.33;4.67;;;27.11;100816.96;;;;117015;1194;24871;-61
2022/09/19 04:18:50;;;;;;;;;6.67;4.00;;;27.10;100822.00;;;;116968;1193;25596;-62
2022/09/19 04:21:19;;;;;;;;;5.00;5.00;;;27.10;100822.27;;;;116977;1194;25611;-61
2022/09/19 04:23:47;;;;;;;;;5.00;1.75;;;27.12;100829.20;;;;116920;1193;25046;-62
2022/09/19 04:26:15;;;;;;;;;6.25;5.25;;;27.13;100836.20;;;;117021;1194;25643;-61
2022/09/19 04:28:44;;;;;;;;;4.67;3.00;;;27.11;100837.69;;;;117005;1193;25246;-60
2022/09/19 04:31:13;;;;;;;;;5.33;5.00;;;27.10;100842.55;;;;117043;1193;25173;-62
2022/09/19 04:33:41;;;;;;;;;5.00;3.00;;;27.10;100847.49;;;;116944;1193;25091;-62
2022/09/19 04:36:09;;;;;;;;;9.50;3.75;;;27.11;100851.73;;;;117002;1193;24916;-63
2022/09/19 04:38:38;;;;;;;;;3.00;2.25;;;27.11;100856.51;;;;117055;1193;25444;-61
2022/09/19 04:41:08;;;;;;;;;5.00;4.50;;;27.09;100856.89;;;;117027;1193;25265;-61
2022/09/19 04:43:36;;;;;;;;;4.50;3.75;;;27.08;100856.13;;;;117040;1192;25106;-61
2022/09/19 04:46:06;;;;;;;;;6.33;4.67;;;27.08;100856.62;;;;117035;1193;24886;-61
2022/09/19 04:48:34;;;;;;;;;4.25;3.25;;;27.08;100859.15;;;;116983;1193;26590;-62
2022/09/19 04:51:05;;;;;;;;;5.00;3.00;;;27.09;100854.68;;;;117026;1193;25567;-60
2022/09/19 04:53:38;;;;;;;;;7.75;4.00;;;27.08;100856.19;;;;117124;1192;24852;-61
2022/09/19 04:56:06;;;;;;;;;5.00;2.75;;;27.09;100857.66;;;;117053;1193;25550;-60
2022/09/19 04:58:37;;;;;;;;;4.25;4.25;;;27.10;100863.02;;;;117036;1193;24919;-62
2022/09/19 05:01:07;;;;;;;;;3.25;3.25;;;27.09;100865.33;;;;117120;1192;25092;-60
2022/09/19 05:03:36;;;;;;;;;5.67;5.00;;;27.10;100855.87;;;;117010;1193;25349;-61
2022/09/19 05:06:06;;;;;;;;;5.75;3.00;;;27.10;100856.20;;;;117009;1193;25190;-61
2022/09/19 05:08:34;;;;;;;;;8.50;3.00;;;27.10;100863.46;;;;117123;1193;25285;-61
2022/09/19 05:11:05;;;;;;;;;5.25;3.75;;;27.10;100863.04;;;;117023;1193;25449;-61
2022/09/19 05:13:38;;;;;;;;;4.00;4.00;;;27.09;100861.07;;;;117117;1193;25586;-62
2022/09/19 05:16:07;;;;;;;;;3.75;3.75;;;27.09;100860.71;;;;117043;1192;25210;-63
2022/09/19 05:18:37;;;;;;;;;3.00;3.00;;;27.09;100858.94;;;;116988;1192;25380;-62
2022/09/19 05:21:08;;;;;;;;;3.67;3.00;;;27.09;100862.42;;;;116994;1193;25701;-60
2022/09/19 05:23:38;;;;;;;;;3.00;3.00;;;27.10;100861.59;;;;117073;1193;25044;-62
2022/09/19 05:26:09;;;;;;;;;3.75;2.00;;;27.10;100867.71;;;;117106;1191;24841;-61
2022/09/19 05:28:37;;;;;;;;;3.75;3.75;;;27.10;100865.23;;;;116989;1193;25252;-62
2022/09/19 05:31:07;;;;;;;;;3.50;3.50;;;27.11;100865.61;;;;117054;1193;24828;-62
2022/09/19 05:33:36;;;;;;;;;4.00;3.00;;;27.10;100863.20;;;;117094;1193;25320;-61
2022/09/19 05:36:05;;;;;;;;;3.67;3.67;;;27.10;100868.65;;;;116991;1192;25598;-63
2022/09/19 05:38:34;;;;;;;;;6.00;4.00;;;27.09;100875.51;;;;117063;1193;25114;-59
2022/09/19 05:41:04;;;;;;;;;4.33;4.00;;;27.09;100877.94;;;;117007;1193;25734;-63
2022/09/19 05:43:35;;;;;;;;;4.00;4.00;;;27.08;100881.83;;;;117129;1193;25312;-62
2022/09/19 05:46:04;;;;;;;;;5.00;5.00;;;27.08;100884.22;;;;116892;1193;25084;-61
2022/09/19 05:48:37;;;;;;;;;4.75;2.75;;;27.07;100885.02;;;;116990;1192;24770;-61
2022/09/19 05:51:05;;;;;;;;;3.00;3.00;;;27.09;100885.70;;;;117028;1193;25493;-61
2022/09/19 05:53:52;;;;;;;;;3.75;3.75;;;27.10;100886.29;;;;117037;1193;25147;-61
2022/09/19 05:56:22;;;;;;;;;4.00;3.50;;;27.09;100878.89;;;;117002;1193;25396;-62
2022/09/19 05:58:54;;;;;;;;;1.00;1.00;;;27.08;100875.67;;;;117023;1191;25220;-62
2022/09/19 06:01:22;;;;;;;;;1.33;1.33;;;27.08;100871.89;;;;116984;1193;24923;-63
2022/09/19 06:03:51;;;;;;;;;6.00;3.00;;;27.09;100872.52;;;;117100;1193;26048;-62
2022/09/19 06:06:20;;;;;;;;;3.00;3.00;;;27.09;100882.02;;;;117017;1193;25045;-62
2022/09/19 06:08:58;;;;;;;;;3.75;3.75;;;27.11;100890.18;;;;117046;1193;24751;-62
2022/09/19 06:11:27;;;;;;;;;3.25;3.25;;;27.12;100882.99;;;;117062;1191;24806;-62
2022/09/19 06:14:14;;;;;;;;;4.00;3.25;;;27.15;100883.65;;;;116915;1192;25518;-61
2022/09/19 06:16:43;;;;;;;;;3.50;3.50;;;27.15;100880.95;;;;117108;1193;25532;-62
2022/09/19 06:19:11;;;;;;;;;3.00;2.67;;;27.17;100885.60;;;;117005;1193;25238;-59
2022/09/19 06:21:40;;;;;;;;;7.00;3.33;;;27.17;100888.41;;;;116992;1193;25209;-62
2022/09/19 06:24:09;;;;;;;;;4.00;3.00;;;27.17;100883.04;;;;117034;1193;24995;-62
2022/09/19 06:26:37;;;;;;;;;3.75;3.75;;;27.17;100887.79;;;;117021;1193;24906;-63
2022/09/19 06:29:06;;;;;;;;;3.00;2.00;;;27.18;100889.09;;;;116992;1193;25531;-62
2022/09/19 06:31:35;;;;;;;;;3.00;3.00;;;27.18;100887.89;;;;117044;1193;24827;-61
2022/09/19 06:34:04;;;;;;;;;6.25;4.00;;;27.18;100887.58;;;;117053;1193;24738;-62
2022/09/19 06:36:34;;;;;;;;;3.00;2.00;;;27.18;100882.34;;;;117101;1191;25245;-61
2022/09/19 06:39:02;;;;;;;;;3.75;3.25;;;27.18;100883.46;;;;117112;1193;25190;-61
2022/09/19 06:41:31;;;;;;;;;4.33;4.33;;;27.18;100887.09;;;;116988;1193;25528;-63
2022/09/19 06:44:01;;;;;;;;;4.50;3.25;;;27.18;100888.46;;;;117032;1193;25142;-63
2022/09/19 06:46:30;;;;;;;;;3.75;3.00;;;27.18;100883.92;;;;117214;1190;24953;-63
2022/09/19 06:48:59;;;;;;;;;0.00;0.00;;;27.20;100888.46;;;;117098;1193;25045;-63
2022/09/19 06:51:29;;;;;;;;;3.33;3.33;;;27.20;100887.75;;;;116992;1193;25101;-62
2022/09/19 06:53:57;;;;;;;;;3.50;3.50;;;27.22;100886.17;;;;117019;1193;25473;-62
2022/09/19 06:56:26;;;;;;;;;3.00;3.00;;;27.23;100886.27;;;;116982;1192;25757;-63
2022/09/19 06:58:55;;;;;;;;;4.00;4.00;;;27.24;100886.46;;;;117006;1193;25229;-62
2022/09/19 07:01:23;;;;;;;;;3.67;3.00;;;27.25;100883.85;;;;117019;1193;25355;-62
2022/09/19 07:03:52;;;;;;;;;2.50;2.50;;;27.25;100881.54;;;;117055;1193;25737;-63
2022/09/19 07:06:20;;;;;;;;;4.00;4.00;;;27.26;100887.42;;;;117103;1192;25397;-63
2022/09/19 07:08:49;;;;;;;;;3.00;3.00;;;27.26;100892.30;;;;117042;1193;25566;-62
2022/09/19 07:11:18;;;;;;;;;2.33;2.33;;;27.26;100890.95;;;;117063;1193;25470;-62
2022/09/19 07:13:49;;;;;;;;;4.67;3.67;;;27.27;100892.89;;;;116959;1193;25341;-65
2022/09/19 07:16:17;;;;;;;;;2.50;2.50;;;27.27;100892.05;;;;117085;1193;25225;-63
2022/09/19 07:18:46;;;;;;;;;4.00;2.00;;;27.29;100879.00;;;;117020;1193;25096;-62
2022/09/19 07:21:14;;;;;;;;;6.25;4.00;;;27.29;100893.59;;;;116994;1193;25074;-63
2022/09/19 07:23:43;;;;;;;;;4.75;3.00;;;27.29;100893.72;;;;116899;1193;24925;-65
2022/09/19 07:26:12;;;;;;;;;3.00;3.00;;;27.30;100894.94;;;;117064;1191;24908;-64
2022/09/19 07:28:41;;;;;;;;;4.75;4.00;;;27.32;100893.74;;;;117024;1193;25118;-64
2022/09/19 07:31:09;;;;;;;;;4.75;3.00;;;27.33;100892.83;;;;117099;1193;25525;-63
2022/09/19 07:33:37;;;;;;;;;3.00;3.00;;;27.34;100888.55;;;;117033;1193;24942;-62
2022/09/19 07:36:06;;;;;;;;;4.50;3.00;;;27.32;100886.40;;;;117009;1191;24821;-61
2022/09/19 07:38:37;;;;;;;;;4.75;4.75;;;27.34;100891.38;;;;117090;1192;25602;-63
2022/09/19 07:41:05;;;;;;;;;7.75;3.25;;;27.35;100889.75;;;;117083;1193;25378;-61
2022/09/19 07:43:34;;;;;;;;;3.00;2.00;;;27.38;100893.56;;;;117059;1193;26255;-65
2022/09/19 07:46:03;;;;;;;;;2.75;2.50;;;27.39;100897.71;;;;117039;1193;25427;-64
2022/09/19 07:48:32;;;;;;;;;6.75;3.00;;;27.39;100900.45;;;;117136;1192;25650;-65
2022/09/19 07:51:02;;;;;;;;;4.75;4.00;;;27.41;100901.29;;;;116999;1194;24886;-63
2022/09/19 07:53:31;;;;;;;;;8.75;4.00;;;27.41;100902.55;;;;117045;1192;24809;-62
2022/09/19 07:56:00;;;;;;;;;10.00;5.00;;;27.44;100907.08;;;;116989;1191;25285;-62
2022/09/19 07:58:30;;;;;;;;;5.67;5.00;;;27.47;100901.85;;;;117066;1193;24740;-68
2022/09/19 08:01:02;;;;;;;;;9.00;4.75;;;27.46;100901.20;;;;117048;1193;25203;-63
2022/09/19 08:03:30;;;;;;;;;7.00;2.00;;;27.49;100897.41;;;;116961;1193;25548;-64
2022/09/19 08:06:01;;;;;;;;;7.50;3.50;;;27.49;100898.36;;;;116849;1192;25411;-63
2022/09/19 08:08:30;;;;;;;;;10.67;4.67;;;27.53;100900.91;;;;117112;1192;25116;-62
2022/09/19 08:11:02;;;;;;;;;5.25;4.00;;;27.56;100906.76;;;;117058;1193;25234;-64
2022/09/19 08:13:31;;;;;;;;;5.75;3.75;;;27.57;100907.30;;;;116997;1193;25767;-63
2022/09/19 08:16:00;;;;;;;;;3.33;3.00;;;27.59;100902.23;;;;117031;1193;24973;-61
2022/09/19 08:18:31;;;;;;;;;11.25;4.00;;;27.58;100904.70;;;;117019;1193;25105;-62
2022/09/19 08:20:59;;;;;;;;;2.67;2.00;;;27.59;100906.77;;;;117067;1193;25691;-62
2022/09/19 08:23:29;;;;;;;;;5.25;3.00;;;27.59;100902.17;;;;117042;1193;25663;-62
2022/09/19 08:25:57;;;;;;;;;4.75;3.00;;;27.61;100903.47;;;;116921;1193;25018;-64
2022/09/19 08:28:30;;;;;;;;;8.25;4.50;;;27.59;100906.40;;;;117040;1193;25236;-62
2022/09/19 08:31:01;;;;;;;;;3.50;2.75;;;27.62;100906.53;;;;117022;1193;25129;-64
2022/09/19 08:33:30;;;;;;;;;7.00;4.00;;;27.64;100901.79;;;;117025;1193;25242;-63
2022/09/19 08:35:59;;;;;;;;;9.50;3.25;;;27.65;100892.28;;;;117059;1193;25555;-63
2022/09/19 08:38:28;;;;;;;;;3.75;2.50;;;27.66;100881.65;;;;117145;1193;24762;-63
2022/09/19 08:41:00;;;;;;;;;3.67;2.00;;;27.66;100879.20;;;;116993;1193;25553;-62
2022/09/19 08:43:38;;;;;;;;;3.25;3.25;;;27.66;100879.38;;;;117124;1193;25323;-62
2022/09/19 08:46:33;;;;;;;;;4.33;4.00;;;27.66;100881.01;;;;117137;1193;24771;-64
2022/09/19 08:49:06;;;;;;;;;6.00;4.00;;;27.67;100873.31;;;;117021;1193;25039;-63
2022/09/19 08:51:52;;;;;;;;;6.25;4.75;;;27.67;100871.97;;;;117010;1193;24876;-63
2022/09/19 08:54:36;;;;;;;;;8.25;3.50;;;27.67;100868.98;;;;117085;1191;25380;-64
2022/09/19 08:57:31;;;;;;;;;1.67;1.67;;;27.68;100869.20;;;;117053;1193;25574;-62
2022/09/19 09:00:27;;;;;;;;;6.25;4.00;;;27.71;100865.45;;;;117104;1191;25428;-63
2022/09/19 09:03:02;;;;;;;;;3.00;2.00;;;27.77;100863.92;;;;117022;1193;25245;-63
2022/09/19 09:05:43;;;;;;;;;9.50;4.25;;;27.79;100862.34;;;;117038;1193;25109;-62
2022/09/19 09:08:30;;;;;;;;;8.67;4.00;;;27.78;100856.22;;;;117103;1191;25064;-63
2022/09/19 09:11:10;;;;;;;;;3.25;2.00;;;27.76;100855.27;;;;117127;1193;25284;-63
2022/09/19 09:14:03;;;;;;;;;7.25;2.00;;;27.74;100857.05;;;;117036;1192;24743;-63
2022/09/19 09:16:49;;;;;;;;;4.25;2.00;;;27.75;100857.34;;;;117053;1192;29163;-63
2022/09/19 09:19:43;;;;;;;;;6.33;3.67;;;27.76;100851.38;;;;117043;1192;25238;-63
2022/09/19 09:22:25;;;;;;;;;4.33;2.00;;;27.77;100849.48;;;;117092;1193;24771;-63
2022/09/19 09:25:05;;;;;;;;;3.00;3.00;;;27.74;100845.59;;;;116887;1193;25415;-63
2022/09/19 09:27:42;;;;;;;;;5.00;3.33;;;27.76;100840.34;;;;117022;1193;24813;-63
2022/09/19 09:30:16;;;;;;;;;6.25;3.25;;;27.77;100839.06;;;;117133;1193;24869;-63
2022/09/19 09:33:07;;;;;;;;;4.50;2.25;;;27.77;100832.35;;;;117046;1193;24972;-63
2022/09/19 09:35:44;;;;;;;;;5.50;3.25;;;27.77;100839.23;;;;117031;1193;25146;-63
2022/09/19 09:38:52;;;;;;;;;3.50;3.00;;;27.78;100830.20;;;;117027;1193;25379;-63
2022/09/19 09:41:51;;;;;;;;;4.33;4.33;;;27.79;100824.71;;;;116917;1193;24850;-63
2022/09/19 09:44:32;;;;;;;;;2.25;2.25;;;27.84;100821.03;;;;117074;1191;24727;-63
2022/09/19 09:47:18;;;;;;;;;3.75;2.00;;;27.82;100815.31;;;;117060;1193;25258;-63
2022/09/19 09:49:47;;;;;;;;;3.00;3.00;;;27.80;100807.50;;;;117099;1192;24743;-63
2022/09/19 09:52:36;;;;;;;;;2.00;2.00;;;27.79;100808.02;;;;116878;1194;25333;-63
2022/09/19 09:58:52;;;;;;;;;3.33;2.33;;;27.76;100802.98;;;;117108;1193;24890;-63
2022/09/19 10:04:25;;;;;;;;;3.75;3.25;;;27.72;100792.50;;;;117100;1191;25537;-63
2022/09/19 10:07:20;;;;;;;;;7.33;3.00;;;27.70;100796.02;;;;117140;1192;25283;-64
2022/09/19 10:09:53;;;;;;;;;6.67;1.33;;;27.72;100798.93;;;;117067;1193;25495;-63
2022/09/19 10:12:33;;;;;;;;;2.50;1.00;;;27.76;100795.50;;;;117117;1193;25432;-63
2022/09/19 10:15:22;;;;;;;;;4.00;3.00;;;27.76;100786.89;;;;117018;1193;24966;-63
2022/09/19 10:18:04;;;;;;;;;3.50;3.00;;;27.76;100785.42;;;;117088;1193;25216;-64
2022/09/19 10:20:49;;;;;;;;;2.00;1.00;;;27.74;100788.27;;;;117033;1191;25507;-63
2022/09/19 10:23:25;;;;;;;;;3.00;3.00;;;27.74;100786.65;;;;117018;1193;25675;-63
2022/09/19 10:26:03;;;;;;;;;4.00;2.00;;;27.74;100790.16;;;;117041;1193;25155;-65
2022/09/19 10:28:37;;;;;;;;;2.75;2.00;;;27.72;100792.52;;;;117037;1193;25191;-64
2022/09/19 10:31:25;;;;;;;;;2.33;2.00;;;27.69;100792.64;;;;117019;1193;25459;-63
2022/09/19 10:33:54;;;;;;;;;2.00;2.00;;;27.68;100799.23;;;;117041;1193;25136;-62
2022/09/19 10:36:31;;;;;;;;;3.75;2.75;;;27.69;100801.52;;;;116995;1193;25407;-62
2022/09/19 10:39:09;;;;;;;;;4.75;3.25;;;27.66;100803.83;;;;117139;1192;27646;-63
2022/09/19 10:41:40;;;;;;;;;3.50;2.00;;;27.66;100804.13;;;;117060;1193;25447;-64
2022/09/19 10:44:22;;;;;;;;;1.67;1.67;;;27.66;100801.61;;;;117023;1193;25563;-62
2022/09/19 10:46:58;;;;;;;;;3.00;2.00;;;27.64;100802.48;;;;117120;1191;25140;-63
2022/09/19 10:49:29;;;;;;;;;3.00;2.50;;;27.63;100804.61;;;;116998;1193;24959;-63
2022/09/19 10:51:59;;;;;;;;;2.50;1.00;;;27.63;100800.93;;;;117104;1192;25085;-65
2022/09/19 10:54:41;;;;;;;;;0.00;0.00;;;27.62;100797.52;;;;117092;1193;25015;-63
2022/09/19 10:57:48;;;;;;;;;3.00;1.25;;;27.61;100796.48;;;;117112;1193;25442;-63
2022/09/19 11:00:54;;;;;;;;;2.00;2.00;;;27.59;100793.36;;;;117097;1193;25439;-63
2022/09/19 11:03:30;;;;;;;;;5.00;2.00;;;27.59;100794.48;;;;117116;1192;25655;-63
2022/09/19 11:06:16;;;;;;;;;2.00;1.50;;;27.57;100790.38;;;;117124;1193;25102;-63
2022/09/19 11:08:48;;;;;;;;;2.25;2.00;;;27.58;100793.86;;;;117112;1192;25448;-63
2022/09/19 11:11:30;;;;;;;;;4.75;2.00;;;27.57;100790.77;;;;117107;1192;25689;-64
2022/09/19 11:14:07;;;;;;;;;2.00;2.00;;;27.57;100789.55;;;;117093;1193;25796;-63
2022/09/19 11:17:15;;;;;;;;;3.50;2.00;;;27.57;100789.81;;;;117057;1193;25710;-63
2022/09/19 11:20:17;;;;;;;;;1.00;1.00;;;27.59;100783.58;;;;117078;1192;25053;-62
2022/09/19 11:23:13;;;;;;;;;2.00;1.00;;;27.59;100784.91;;;;116988;1193;25200;-62
2022/09/19 11:26:03;;;;;;;;;2.50;2.00;;;27.56;100776.56;;;;117121;1193;25015;-64
2022/09/19 11:28:59;;;;;;;;;1.25;1.25;;;27.54;100777.31;;;;117030;1193;24734;-63
2022/09/19 11:31:47;;;;;;;;;1.00;1.00;;;27.53;100774.42;;;;117112;1191;25226;-63
2022/09/19 11:34:50;;;;;;;;;1.33;1.00;;;27.55;100772.67;;;;117064;1192;25140;-63
2022/09/19 11:37:41;;;;;;;;;3.50;2.00;;;27.59;100769.48;;;;117060;1193;25165;-64
2022/09/19 11:40:45;;;;;;;;;2.75;1.50;;;27.61;100764.20;;;;117097;1191;26174;-62
2022/09/19 11:43:44;;;;;;;;;1.00;1.00;;;27.61;100761.63;;;;117110;1191;26440;-63
2022/09/19 11:46:25;;;;;;;;;1.75;1.75;;;27.59;100763.16;;;;117132;1192;25758;-64
2022/09/19 11:49:07;;;;;;;;;2.33;1.67;;;27.60;100756.83;;;;117032;1192;24957;-64
2022/09/19 11:52:06;;;;;;;;;2.67;2.00;;;27.60;100756.55;;;;117118;1191;25229;-62
2022/09/19 11:54:47;;;;;;;;;3.00;2.33;;;27.60;100761.95;;;;117140;1191;24720;-63
2022/09/19 11:57:18;;;;;;;;;3.75;3.00;;;27.57;100768.55;;;;117030;1193;25226;-63
2022/09/19 12:00:04;;;;;;;;;2.67;2.67;;;27.55;100764.14;;;;117098;1192;25312;-63
2022/09/19 12:03:02;;;;;;;;;3.00;1.00;;;27.54;100765.20;;;;117010;1193;25772;-63
2022/09/19 12:05:53;;;;;;;;;2.67;2.67;;;27.56;100760.05;;;;117038;1193;24894;-61
2022/09/19 12:08:36;;;;;;;;;2.00;1.50;;;27.57;100757.10;;;;117111;1192;25422;-63
2022/09/19 12:11:12;;;;;;;;;2.00;1.75;;;27.55;100757.69;;;;117122;1193;24942;-63
2022/09/19 12:13:50;;;;;;;;;4.25;3.00;;;27.53;100755.85;;;;117017;1194;25120;-63
2022/09/19 12:16:34;;;;;;;;;1.00;1.00;;;27.52;100752.40;;;;117005;1193;24933;-62
2022/09/19 12:19:16;;;;;;;;;2.00;2.00;;;27.53;100743.86;;;;117020;1194;25102;-63
2022/09/19 12:21:55;;;;;;;;;3.50;2.50;;;27.54;100739.88;;;;117058;1193;24866;-63
2022/09/19 12:24:55;;;;;;;;;3.00;1.00;;;27.54;100743.10;;;;117049;1193;24840;-63
2022/09/19 12:27:36;;;;;;;;;2.25;2.00;;;27.54;100741.58;;;;117135;1192;25467;-62
2022/09/19 12:30:15;;;;;;;;;2.00;2.00;;;27.54;100736.58;;;;117034;1193;24814;-63
2022/09/19 12:33:31;;;;;;;;;1.00;1.00;;;27.52;100740.67;;;;117041;1193;25763;-62
2022/09/19 12:36:21;;;;;;;;;1.33;1.33;;;27.54;100738.36;;;;116769;1196;25693;-63
2022/09/19 12:39:07;;;;;;;;;1.75;1.50;;;27.56;100737.68;;;;117092;1193;25495;-64
2022/09/19 12:41:55;;;;;;;;;2.67;2.00;;;27.52;100741.70;;;;117088;1193;25433;-62
2022/09/19 12:44:56;;;;;;;;;3.00;1.00;;;27.50;100737.84;;;;117074;1192;25341;-62
2022/09/19 12:47:56;;;;;;;;;1.50;0.50;;;27.50;100732.14;;;;117099;1191;25092;-63
2022/09/19 12:50:43;;;;;;;;;3.50;1.25;;;27.51;100737.70;;;;117012;1192;25334;-63
2022/09/19 12:53:21;;;;;;;;;0.75;0.75;;;27.50;100740.44;;;;117019;1193;25613;-63